createdAt,value
2023-03-16T00:00:15.032Z,10.06
2023-03-16T00:02:43.849Z,10.13
2023-03-16T00:05:13.213Z,10.13
2023-03-16T00:07:43.934Z,10.19
2023-03-16T00:10:12.771Z,10.21
2023-03-16T00:12:59.099Z,10.25
2023-03-16T00:15:28.174Z,10.28
2023-03-16T00:17:56.897Z,10.23
2023-03-16T00:20:25.636Z,10.22
2023-03-16T00:22:53.794Z,10.23
2023-03-16T00:25:21.638Z,10.15
2023-03-16T00:27:50.293Z,10.18
2023-03-16T00:30:18.380Z,10.25
2023-03-16T00:32:47.206Z,10.23
2023-03-16T00:35:19.071Z,10.26
2023-03-16T00:37:47.480Z,10.24
2023-03-16T00:40:17.105Z,10.27
2023-03-16T00:42:45.650Z,10.26
2023-03-16T00:45:18.198Z,10.21
2023-03-16T00:47:46.846Z,10.20
2023-03-16T00:50:16.098Z,10.17
2023-03-16T00:52:45.260Z,10.14
2023-03-16T00:55:14.072Z,10.15
2023-03-16T00:57:45.143Z,10.12
2023-03-16T01:00:16.302Z,10.11
2023-03-16T01:02:45.768Z,10.13
2023-03-16T01:05:42.589Z,10.01
2023-03-16T01:08:10.592Z,10.00
2023-03-16T01:10:38.421Z,10.03
2023-03-16T01:13:07.978Z,9.99
2023-03-16T01:15:36.452Z,9.86
2023-03-16T01:18:06.749Z,9.69
2023-03-16T01:20:36.019Z,9.64
2023-03-16T01:23:03.854Z,9.63
2023-03-16T01:25:33.559Z,9.72
2023-03-16T01:28:02.133Z,9.80
2023-03-16T01:30:33.082Z,9.84
2023-03-16T01:33:02.477Z,9.88
2023-03-16T01:35:34.337Z,9.86
2023-03-16T01:38:02.573Z,9.81
2023-03-16T01:40:32.929Z,9.81
2023-03-16T01:43:02.850Z,9.83
2023-03-16T01:46:05.094Z,9.78
2023-03-16T01:48:49.335Z,9.75
2023-03-16T01:51:48.315Z,9.80
2023-03-16T01:54:23.311Z,9.77
2023-03-16T01:57:07.045Z,9.78
2023-03-16T01:59:58.188Z,9.80
2023-03-16T02:02:27.930Z,9.80
2023-03-16T02:05:13.800Z,9.82
2023-03-16T02:07:49.678Z,9.83
2023-03-16T02:10:19.201Z,9.86
2023-03-16T02:12:47.375Z,9.89
2023-03-16T02:15:15.685Z,9.84
2023-03-16T02:17:47.530Z,9.94
2023-03-16T02:20:31.318Z,10.04
2023-03-16T02:22:59.285Z,10.01
2023-03-16T02:25:32.435Z,10.04
2023-03-16T02:28:03.704Z,10.03
2023-03-16T02:30:33.462Z,9.99
2023-03-16T02:33:05.537Z,10.05
2023-03-16T02:35:33.826Z,10.03
2023-03-16T02:38:03.494Z,10.05
2023-03-16T02:40:35.755Z,9.98
2023-03-16T02:43:11.950Z,9.90
2023-03-16T02:45:51.539Z,9.88
2023-03-16T02:48:35.930Z,9.91
2023-03-16T02:51:04.958Z,9.87
2023-03-16T02:53:33.841Z,9.80
2023-03-16T02:56:03.488Z,9.76
2023-03-16T02:58:36.538Z,9.72
2023-03-16T03:01:09.751Z,9.65
2023-03-16T03:03:37.785Z,9.77
2023-03-16T03:06:06.440Z,9.80
2023-03-16T03:08:37.180Z,9.77
2023-03-16T03:11:05.325Z,9.55
2023-03-16T03:13:36.690Z,9.63
2023-03-16T03:16:06.259Z,9.60
2023-03-16T03:18:35.358Z,9.57
2023-03-16T03:21:07.450Z,9.53
2023-03-16T03:23:36.629Z,9.38
2023-03-16T03:26:04.665Z,9.38
2023-03-16T03:28:34.478Z,9.40
2023-03-16T03:31:03.361Z,9.44
2023-03-16T03:33:35.356Z,9.37
2023-03-16T03:36:05.251Z,9.46
2023-03-16T03:38:38.099Z,9.51
2023-03-16T03:41:08.361Z,9.53
2023-03-16T03:43:40.152Z,9.59
2023-03-16T03:46:19.404Z,9.58
2023-03-16T03:48:47.510Z,9.56
2023-03-16T03:51:15.450Z,9.48
2023-03-16T03:53:47.418Z,9.48
2023-03-16T03:56:22.362Z,9.51
2023-03-16T03:58:51.127Z,9.48
2023-03-16T04:01:42.442Z,9.60
2023-03-16T04:04:11.544Z,9.61
2023-03-16T04:06:40.485Z,9.66
2023-03-16T04:09:09.273Z,9.53
2023-03-16T04:11:38.288Z,9.56
2023-03-16T04:14:07.057Z,9.61
2023-03-16T04:16:36.147Z,9.64
2023-03-16T04:19:05.330Z,9.55
2023-03-16T04:21:34.328Z,9.50
2023-03-16T04:24:10.479Z,9.59
2023-03-16T04:26:40.229Z,9.58
2023-03-16T04:29:08.027Z,9.59
2023-03-16T04:31:36.692Z,9.57
2023-03-16T04:34:05.549Z,9.63
2023-03-16T04:36:35.175Z,9.53
2023-03-16T04:39:05.093Z,9.70
2023-03-16T04:41:33.633Z,9.86
2023-03-16T04:44:15.109Z,9.91
2023-03-16T04:46:44.181Z,9.94
2023-03-16T04:49:14.413Z,9.96
2023-03-16T04:51:46.469Z,10.02
2023-03-16T04:54:18.795Z,9.97
2023-03-16T04:56:48.358Z,10.04
2023-03-16T04:59:32.454Z,10.06
2023-03-16T05:02:21.417Z,10.02
2023-03-16T05:05:11.541Z,10.09
2023-03-16T05:07:48.272Z,10.18
2023-03-16T05:10:19.177Z,10.21
2023-03-16T05:12:48.229Z,10.19
2023-03-16T05:15:22.149Z,10.23
2023-03-16T05:18:13.648Z,10.24
2023-03-16T05:20:45.748Z,10.29
2023-03-16T05:23:17.142Z,10.35
2023-03-16T05:25:49.488Z,10.27
2023-03-16T05:28:22.327Z,10.20
2023-03-16T05:30:57.217Z,10.17
2023-03-16T05:33:33.801Z,10.29
2023-03-16T05:36:08.258Z,10.33
2023-03-16T05:38:39.601Z,10.27
2023-03-16T05:41:11.395Z,10.33
2023-03-16T05:43:59.712Z,10.49
2023-03-16T05:46:37.471Z,10.52
2023-03-16T05:49:07.376Z,10.52
2023-03-16T05:51:35.769Z,10.28
2023-03-16T05:54:06.798Z,10.30
2023-03-16T05:56:44.494Z,10.47
2023-03-16T05:59:13.669Z,10.54
2023-03-16T06:02:22.594Z,10.49
2023-03-16T06:04:51.793Z,10.20
2023-03-16T06:07:21.320Z,10.29
2023-03-16T06:09:51.462Z,10.18
2023-03-16T06:12:21.246Z,10.41
2023-03-16T06:14:50.293Z,10.51
2023-03-16T06:17:23.212Z,10.65
2023-03-16T06:19:53.262Z,10.74
2023-03-16T06:22:21.381Z,10.75
2023-03-16T06:24:56.185Z,10.74
2023-03-16T06:27:28.974Z,10.89
2023-03-16T06:30:13.684Z,10.88
2023-03-16T06:32:42.970Z,10.87
2023-03-16T06:35:10.824Z,10.90
2023-03-16T06:37:42.840Z,10.96
2023-03-16T06:40:24.014Z,10.99
2023-03-16T06:42:54.989Z,11.09
2023-03-16T06:45:26.029Z,11.14
2023-03-16T06:47:57.002Z,11.08
2023-03-16T06:50:25.503Z,11.14
2023-03-16T06:52:53.739Z,11.19
2023-03-16T06:55:27.861Z,11.23
2023-03-16T06:57:56.578Z,11.30
2023-03-16T07:00:26.679Z,11.36
2023-03-16T07:02:54.973Z,11.49
2023-03-16T07:05:23.113Z,11.47
2023-03-16T07:07:55.076Z,11.28
2023-03-16T07:10:23.585Z,11.38
2023-03-16T07:12:51.857Z,11.45
2023-03-16T07:15:21.331Z,11.48
2023-03-16T07:17:50.099Z,11.61
2023-03-16T07:20:18.251Z,11.71
2023-03-16T07:22:46.628Z,11.80
2023-03-16T07:25:15.984Z,11.91
2023-03-16T07:27:49.672Z,11.92
2023-03-16T07:30:26.176Z,11.90
2023-03-16T07:32:55.327Z,11.92
2023-03-16T07:35:26.982Z,11.71
2023-03-16T07:37:56.185Z,11.60
2023-03-16T07:40:27.196Z,11.65
2023-03-16T07:43:01.814Z,11.78
2023-03-16T07:45:36.478Z,11.82
2023-03-16T07:48:07.717Z,11.81
2023-03-16T07:50:49.367Z,11.91
2023-03-16T07:53:24.121Z,11.75
2023-03-16T07:56:02.503Z,11.64
2023-03-16T07:58:33.594Z,11.79
2023-03-16T08:01:02.036Z,11.81
2023-03-16T08:03:30.333Z,11.89
2023-03-16T08:06:05.876Z,11.83
2023-03-16T08:08:35.033Z,11.84
2023-03-16T08:11:03.470Z,11.89
2023-03-16T08:13:44.748Z,11.76
2023-03-16T08:16:14.372Z,11.78
2023-03-16T08:18:46.480Z,11.79
2023-03-16T08:21:17.618Z,11.82
2023-03-16T08:23:52.405Z,11.88
2023-03-16T08:26:23.836Z,11.88
2023-03-16T08:28:59.144Z,11.71
2023-03-16T08:31:45.937Z,11.81
2023-03-16T08:34:22.652Z,11.87
2023-03-16T08:36:50.865Z,11.78
2023-03-16T08:39:20.788Z,11.82
2023-03-16T08:41:50.189Z,11.93
2023-03-16T08:44:26.548Z,12.02
2023-03-16T08:46:56.952Z,12.00
2023-03-16T08:49:25.911Z,12.05
2023-03-16T08:52:03.756Z,12.16
2023-03-16T08:54:33.012Z,12.03
2023-03-16T08:57:06.256Z,12.00
2023-03-16T08:59:34.744Z,12.19
2023-03-16T09:02:04.823Z,12.31
2023-03-16T09:04:33.848Z,12.36
2023-03-16T09:07:08.955Z,12.40
2023-03-16T09:09:38.242Z,12.37
2023-03-16T09:12:08.728Z,12.25
2023-03-16T09:14:38.803Z,12.29
2023-03-16T09:17:12.080Z,12.46
2023-03-16T09:19:51.090Z,12.59
2023-03-16T09:22:21.021Z,12.65
2023-03-16T09:24:50.006Z,12.70
2023-03-16T09:27:18.732Z,12.82
2023-03-16T09:29:50.037Z,12.93
2023-03-16T09:32:20.397Z,12.85
2023-03-16T09:34:48.295Z,12.80
2023-03-16T09:37:27.806Z,12.74
2023-03-16T09:40:03.199Z,12.66
2023-03-16T09:42:36.904Z,12.73
2023-03-16T09:45:23.594Z,12.86
2023-03-16T09:47:51.719Z,13.03
2023-03-16T09:50:47.733Z,12.82
2023-03-16T09:53:25.625Z,12.94
2023-03-16T09:56:18.764Z,13.26
2023-03-16T09:58:47.249Z,13.27
2023-03-16T10:01:19.167Z,13.45
2023-03-16T10:03:50.405Z,13.37
2023-03-16T10:06:18.426Z,13.18
2023-03-16T10:08:53.649Z,13.24
2023-03-16T10:11:33.366Z,13.62
2023-03-16T10:14:18.231Z,13.40
2023-03-16T10:17:01.675Z,13.89
2023-03-16T10:19:42.716Z,13.71
2023-03-16T10:22:26.837Z,13.65
2023-03-16T10:25:07.596Z,13.87
2023-03-16T10:27:37.423Z,14.05
2023-03-16T10:30:19.184Z,13.53
2023-03-16T10:32:47.535Z,13.21
2023-03-16T10:35:40.892Z,13.64
2023-03-16T10:38:48.601Z,13.18
2023-03-16T10:41:23.026Z,13.42
2023-03-16T10:43:53.228Z,12.77
2023-03-16T10:46:21.472Z,12.71
2023-03-16T10:49:00.574Z,12.65
2023-03-16T10:51:33.412Z,12.74
2023-03-16T10:54:18.085Z,12.56
2023-03-16T10:56:46.568Z,12.87
2023-03-16T10:59:34.706Z,12.52
2023-03-16T11:02:04.388Z,12.46
2023-03-16T11:04:34.103Z,12.57
2023-03-16T11:07:03.006Z,12.44
2023-03-16T11:09:33.537Z,12.23
2023-03-16T11:12:18.226Z,12.45
2023-03-16T11:14:52.783Z,12.96
2023-03-16T11:17:50.116Z,13.02
2023-03-16T11:20:22.266Z,12.74
2023-03-16T11:22:53.755Z,12.57
2023-03-16T11:25:29.838Z,12.59
2023-03-16T11:28:13.411Z,12.51
2023-03-16T11:30:45.025Z,13.00
2023-03-16T11:33:15.858Z,12.99
2023-03-16T11:36:30.221Z,12.87
2023-03-16T11:39:10.142Z,13.20
2023-03-16T11:42:16.913Z,13.48
2023-03-16T11:45:20.041Z,13.55
2023-03-16T11:47:58.668Z,13.43
2023-03-16T11:50:37.984Z,13.75
2023-03-16T11:53:29.778Z,13.82
2023-03-16T11:56:19.165Z,14.31
2023-03-16T11:59:18.421Z,14.45
2023-03-16T12:02:00.913Z,14.60
2023-03-16T12:04:47.688Z,14.53
2023-03-16T12:07:22.259Z,14.64
2023-03-16T12:09:53.485Z,14.54
2023-03-16T12:12:38.056Z,14.68
2023-03-16T12:15:28.354Z,14.37
2023-03-16T12:18:03.055Z,14.04
2023-03-16T12:20:36.061Z,13.81
2023-03-16T12:23:15.504Z,13.65
2023-03-16T12:25:46.408Z,14.17
2023-03-16T12:28:19.510Z,14.46
2023-03-16T12:31:05.208Z,14.25
2023-03-16T12:33:48.984Z,14.17
2023-03-16T12:36:19.830Z,14.41
2023-03-16T12:38:57.334Z,14.14
2023-03-16T12:41:54.880Z,14.22
2023-03-16T12:44:57.686Z,13.96
2023-03-16T12:47:59.350Z,14.28
2023-03-16T12:50:27.908Z,14.37
2023-03-16T12:52:56.161Z,14.40
2023-03-16T12:55:35.153Z,14.12
2023-03-16T12:58:06.667Z,14.14
2023-03-16T13:00:37.844Z,14.07
2023-03-16T13:03:06.986Z,14.10
2023-03-16T13:05:36.625Z,14.04
2023-03-16T13:08:10.976Z,13.85
2023-03-16T13:10:40.120Z,13.80
2023-03-16T13:13:16.443Z,13.85
2023-03-16T13:15:47.699Z,13.76
2023-03-16T13:18:20.313Z,13.71
2023-03-16T13:20:48.576Z,13.48
2023-03-16T13:23:19.193Z,13.76
2023-03-16T13:26:28.609Z,13.98
2023-03-16T13:28:56.917Z,14.01
2023-03-16T13:31:27.667Z,13.78
2023-03-16T13:33:57.151Z,13.88
2023-03-16T13:36:31.078Z,13.87
2023-03-16T13:39:14.366Z,13.90
2023-03-16T13:41:43.935Z,14.09
2023-03-16T13:44:15.757Z,14.19
2023-03-16T13:46:50.004Z,14.21
2023-03-16T13:49:18.742Z,14.27
2023-03-16T13:51:47.540Z,14.32
2023-03-16T13:54:31.033Z,14.38
2023-03-16T13:57:00.576Z,14.40
2023-03-16T13:59:28.540Z,14.39
2023-03-16T14:01:59.059Z,14.43
2023-03-16T14:04:29.813Z,14.42
2023-03-16T14:07:00.752Z,14.43
2023-03-16T14:09:30.990Z,14.35
2023-03-16T14:11:59.072Z,14.37
2023-03-16T14:14:39.824Z,14.40
2023-03-16T14:17:34.538Z,14.28
2023-03-16T14:20:12.036Z,14.19
2023-03-16T14:22:41.144Z,14.18
2023-03-16T14:25:12.220Z,14.21
2023-03-16T14:27:41.414Z,14.18
2023-03-16T14:30:27.287Z,14.20
2023-03-16T14:33:07.039Z,14.08
2023-03-16T14:35:47.200Z,14.08
2023-03-16T14:38:38.356Z,14.06
2023-03-16T14:41:26.871Z,14.00
2023-03-16T14:43:56.586Z,14.00
2023-03-16T14:46:29.744Z,13.97
2023-03-16T14:49:01.977Z,13.90
2023-03-16T14:51:34.419Z,13.90
2023-03-16T14:54:03.105Z,13.96
2023-03-16T14:56:37.813Z,14.04
2023-03-16T14:59:09.378Z,14.05
2023-03-16T15:01:38.380Z,13.93
2023-03-16T15:04:07.811Z,13.90
2023-03-16T15:06:36.835Z,13.96
2023-03-16T15:09:05.078Z,13.66
2023-03-16T15:11:35.242Z,13.76
2023-03-16T15:14:15.185Z,13.79
2023-03-16T15:16:43.525Z,13.75
2023-03-16T15:19:12.158Z,13.81
2023-03-16T15:21:40.874Z,13.67
2023-03-16T15:24:12.319Z,13.66
2023-03-16T15:26:41.609Z,13.62
2023-03-16T15:29:10.955Z,13.48
2023-03-16T15:31:39.613Z,13.45
2023-03-16T15:34:07.569Z,12.77
2023-03-16T15:36:36.116Z,13.25
2023-03-16T15:39:04.743Z,13.27
2023-03-16T15:41:46.760Z,13.23
2023-03-16T15:44:16.216Z,13.21
2023-03-16T15:46:45.746Z,13.21
2023-03-16T15:49:14.337Z,13.04
2023-03-16T15:51:43.590Z,13.04
2023-03-16T15:54:12.520Z,12.79
2023-03-16T15:56:53.171Z,12.91
2023-03-16T15:59:27.461Z,12.89
2023-03-16T16:01:56.277Z,13.04
2023-03-16T16:04:26.396Z,13.05
2023-03-16T16:06:55.993Z,12.89
2023-03-16T16:09:25.873Z,12.50
2023-03-16T16:11:53.864Z,12.62
2023-03-16T16:14:25.123Z,12.54
2023-03-16T16:16:54.990Z,12.49
2023-03-16T16:19:23.845Z,12.37
2023-03-16T16:21:55.465Z,12.41
2023-03-16T16:24:23.901Z,12.41
2023-03-16T16:26:55.351Z,12.46
2023-03-16T16:29:27.113Z,12.29
2023-03-16T16:31:55.686Z,12.47
2023-03-16T16:34:25.941Z,12.46
2023-03-16T16:36:56.324Z,12.43
2023-03-16T16:39:24.767Z,12.40
2023-03-16T16:41:57.142Z,12.46
2023-03-16T16:44:27.534Z,12.47
2023-03-16T16:46:59.853Z,12.56
2023-03-16T16:49:30.658Z,12.50
2023-03-16T16:51:58.593Z,12.46
2023-03-16T16:54:28.568Z,12.55
2023-03-16T16:56:57.373Z,12.53
2023-03-16T16:59:34.851Z,12.62
2023-03-16T17:02:03.333Z,12.62
2023-03-16T17:04:32.233Z,12.63
2023-03-16T17:07:03.631Z,12.57
2023-03-16T17:09:31.927Z,12.44
2023-03-16T17:12:01.925Z,12.69
2023-03-16T17:14:34.163Z,12.68
2023-03-16T17:17:08.619Z,12.62
2023-03-16T17:19:36.524Z,12.48
2023-03-16T17:22:07.349Z,12.13
2023-03-16T17:24:37.691Z,12.21
2023-03-16T17:27:06.270Z,12.34
2023-03-16T17:29:34.382Z,12.32
2023-03-16T17:32:05.435Z,12.47
2023-03-16T17:34:34.057Z,12.49
2023-03-16T17:37:03.919Z,12.39
2023-03-16T17:39:35.270Z,12.23
2023-03-16T17:42:06.555Z,12.22
2023-03-16T17:44:40.573Z,12.11
2023-03-16T17:47:39.796Z,12.19
2023-03-16T17:50:25.669Z,11.90
2023-03-16T17:52:54.840Z,12.14
2023-03-16T17:55:26.211Z,12.04
2023-03-16T17:57:55.679Z,12.18
2023-03-16T18:00:27.104Z,12.30
2023-03-16T18:03:07.277Z,12.42
2023-03-16T18:05:36.779Z,12.20
2023-03-16T18:08:20.839Z,12.13
2023-03-16T18:10:53.468Z,12.06
2023-03-16T18:13:33.559Z,12.14
2023-03-16T18:16:07.756Z,12.06
2023-03-16T18:18:39.780Z,11.98
2023-03-16T18:21:20.167Z,11.96
2023-03-16T18:23:48.425Z,11.98
2023-03-16T18:26:20.013Z,11.87
2023-03-16T18:28:50.821Z,11.80
2023-03-16T18:31:22.231Z,11.98
2023-03-16T18:33:51.646Z,11.69
2023-03-16T18:36:21.116Z,11.76
2023-03-16T18:38:54.167Z,11.74
2023-03-16T18:41:23.137Z,11.75
2023-03-16T18:43:52.295Z,11.63
2023-03-16T18:46:31.136Z,11.96
2023-03-16T18:49:01.696Z,11.77
2023-03-16T18:51:35.673Z,11.71
2023-03-16T18:54:05.011Z,11.66
2023-03-16T18:56:33.693Z,11.52
2023-03-16T18:59:02.540Z,11.56
2023-03-16T19:01:31.375Z,11.70
2023-03-16T19:04:00.890Z,11.81
2023-03-16T19:06:34.159Z,11.73
2023-03-16T19:09:26.844Z,11.44
2023-03-16T19:11:57.785Z,11.83
2023-03-16T19:14:33.334Z,11.57
2023-03-16T19:17:05.710Z,11.86
2023-03-16T19:19:34.290Z,11.85
2023-03-16T19:22:14.074Z,11.86
2023-03-16T19:24:51.677Z,11.84
2023-03-16T19:27:26.605Z,11.80
2023-03-16T19:29:58.579Z,11.71
2023-03-16T19:32:26.877Z,11.64
2023-03-16T19:34:59.719Z,11.43
2023-03-16T19:37:30.414Z,11.46
2023-03-16T19:40:01.345Z,11.24
2023-03-16T19:42:30.380Z,11.24
2023-03-16T19:44:58.210Z,11.20
2023-03-16T19:47:31.238Z,10.99
2023-03-16T19:49:59.427Z,11.21
2023-03-16T19:52:28.710Z,11.07
2023-03-16T19:54:58.044Z,11.13
2023-03-16T19:57:25.898Z,10.99
2023-03-16T19:59:58.331Z,11.22
2023-03-16T20:02:27.385Z,10.87
2023-03-16T20:04:56.105Z,10.88
2023-03-16T20:07:25.325Z,11.27
2023-03-16T20:09:54.259Z,11.35
2023-03-16T20:12:25.189Z,11.14
2023-03-16T20:14:55.902Z,10.89
2023-03-16T20:17:25.600Z,10.98
2023-03-16T20:19:53.575Z,11.10
2023-03-16T20:22:23.294Z,10.82
2023-03-16T20:24:53.406Z,10.87
2023-03-16T20:27:23.254Z,10.82
2023-03-16T20:29:52.062Z,10.68
2023-03-16T20:32:21.308Z,10.94
2023-03-16T20:34:51.584Z,11.14
2023-03-16T20:37:28.012Z,11.14
2023-03-16T20:39:57.390Z,10.84
2023-03-16T20:42:32.440Z,11.15
2023-03-16T20:45:01.946Z,11.15
2023-03-16T20:47:31.814Z,11.37
2023-03-16T20:50:01.410Z,11.25
2023-03-16T20:52:31.117Z,11.39
2023-03-16T20:55:00.003Z,11.52
2023-03-16T20:57:30.341Z,11.37
2023-03-16T20:59:58.496Z,11.12
2023-03-16T21:02:27.915Z,11.34
2023-03-16T21:04:56.943Z,11.32
2023-03-16T21:07:25.354Z,11.46
2023-03-16T21:09:54.090Z,11.24
2023-03-16T21:12:36.199Z,11.43
2023-03-16T21:15:15.552Z,11.24
2023-03-16T21:17:46.709Z,11.53
2023-03-16T21:20:17.781Z,11.37
2023-03-16T21:22:46.422Z,11.44
2023-03-16T21:25:19.992Z,11.24
2023-03-16T21:27:50.041Z,11.17
2023-03-16T21:30:28.804Z,11.39
2023-03-16T21:33:00.247Z,11.37
2023-03-16T21:35:36.191Z,11.34
2023-03-16T21:38:17.786Z,11.36
2023-03-16T21:40:46.241Z,11.14
2023-03-16T21:43:14.470Z,11.24
2023-03-16T21:45:42.427Z,11.21
2023-03-16T21:48:35.061Z,11.00
2023-03-16T21:51:03.356Z,10.75
2023-03-16T21:53:33.783Z,10.68
2023-03-16T21:56:03.762Z,10.85
2023-03-16T21:58:31.783Z,10.89
2023-03-16T22:01:00.413Z,10.94
2023-03-16T22:03:47.690Z,10.96
2023-03-16T22:06:18.624Z,10.85
2023-03-16T22:08:46.863Z,10.77
2023-03-16T22:11:21.415Z,10.71
2023-03-16T22:13:49.882Z,10.84
2023-03-16T22:16:19.914Z,10.89
2023-03-16T22:18:52.379Z,10.81
2023-03-16T22:21:39.704Z,10.78
2023-03-16T22:24:26.273Z,10.79
2023-03-16T22:26:54.691Z,10.72
2023-03-16T22:29:26.728Z,10.69
2023-03-16T22:32:00.009Z,10.66
2023-03-16T22:34:47.538Z,10.63
2023-03-16T22:37:21.734Z,10.41
2023-03-16T22:39:50.039Z,10.62
2023-03-16T22:42:36.148Z,10.54
2023-03-16T22:45:15.765Z,10.41
2023-03-16T22:47:50.109Z,10.40
2023-03-16T22:50:19.748Z,10.47
2023-03-16T22:52:49.381Z,10.53
2023-03-16T22:55:23.087Z,10.38
2023-03-16T22:57:51.737Z,10.38
2023-03-16T23:00:28.907Z,10.50
2023-03-16T23:02:58.127Z,10.56
2023-03-16T23:05:33.879Z,10.58
2023-03-16T23:08:06.211Z,10.73
2023-03-16T23:10:34.641Z,10.78
2023-03-16T23:13:20.285Z,10.43
2023-03-16T23:15:49.425Z,10.34
2023-03-16T23:18:21.267Z,10.17
2023-03-16T23:20:49.759Z,10.66
2023-03-16T23:23:18.066Z,10.62
2023-03-16T23:25:48.369Z,10.72
2023-03-16T23:28:23.585Z,10.52
2023-03-16T23:30:52.091Z,10.65
2023-03-16T23:33:22.107Z,10.52
2023-03-16T23:35:50.607Z,10.74
2023-03-16T23:38:20.597Z,10.44
2023-03-16T23:40:50.094Z,10.36
2023-03-16T23:43:24.101Z,10.38
2023-03-16T23:45:52.366Z,10.51
2023-03-16T23:48:21.076Z,10.78
2023-03-16T23:50:54.774Z,10.50
2023-03-16T23:53:24.363Z,10.30
2023-03-16T23:55:52.946Z,10.68
2023-03-16T23:58:22.449Z,10.54
